Time;durP1;ratioP1;P1;durP2;ratioP2;P2;SDS_P1;SDS_P2;PMS_P1;PMS_P2;Temp;Humidity;BMP_temperature;BMP_pressure;BME280_temperature;BME280_humidity;BME280_pressure;Samples;Min_cycle;Max_cycle;Signal;HPM_P1;HPM_P2
2023/09/19 00:01:20;0.00;0.00;0.62;0.00;0.00;0.62;1.60;1.10;;;29.00;33.00;;;;;;2270450;61;20437;-57
2023/09/19 00:04:09;0.00;0.00;0.62;0.00;0.00;0.62;1.93;1.17;;;29.00;33.00;;;;;;2274067;61;20363;-57
2023/09/19 00:06:54;0.00;0.00;0.62;0.00;0.00;0.62;1.50;1.00;;;29.00;32.90;;;;;;2274000;61;20359;-56
2023/09/19 00:09:38;0.00;0.00;0.62;0.00;0.00;0.62;1.63;0.90;;;29.00;32.80;;;;;;2273742;61;20425;-58
2023/09/19 00:12:23;0.00;0.00;0.62;0.00;0.00;0.62;1.90;1.00;;;29.00;32.80;;;;;;2274005;61;20787;-56
2023/09/19 00:15:10;0.00;0.00;0.62;0.00;0.00;0.62;2.10;1.30;;;29.00;32.80;;;;;;2274378;61;20375;-56
2023/09/19 00:17:56;0.00;0.00;0.62;0.00;0.00;0.62;1.60;1.00;;;29.00;32.80;;;;;;2273451;61;20363;-56
2023/09/19 00:20:42;0.00;0.00;0.62;0.00;0.00;0.62;1.60;1.00;;;29.00;32.80;;;;;;2274589;61;21437;-58
2023/09/19 00:23:28;0.00;0.00;0.62;0.00;0.00;0.62;1.90;1.40;;;29.00;32.80;;;;;;2274582;61;20406;-58
2023/09/19 00:26:12;0.00;0.00;0.62;0.00;0.00;0.62;2.00;1.20;;;29.00;32.80;;;;;;2273547;61;20362;-60
2023/09/19 00:29:08;0.00;0.00;0.62;0.00;0.00;0.62;1.97;1.10;;;28.90;32.70;;;;;;2273644;61;20383;-57
2023/09/19 00:31:53;0.00;0.00;0.62;0.00;0.00;0.62;1.60;1.00;;;29.00;32.80;;;;;;2274963;61;20363;-57
2023/09/19 00:34:40;0.00;0.00;0.62;0.00;0.00;0.62;1.63;1.10;;;28.90;32.70;;;;;;2274377;61;20378;-57
2023/09/19 00:37:25;0.00;0.00;0.62;0.00;0.00;0.62;1.80;1.30;;;28.90;32.70;;;;;;2274211;61;20459;-55
2023/09/19 00:40:15;0.00;0.00;0.62;0.00;0.00;0.62;2.20;1.60;;;28.90;32.70;;;;;;2273876;61;20480;-56
2023/09/19 00:43:00;0.00;0.00;0.62;0.00;0.00;0.62;1.70;1.00;;;28.90;32.70;;;;;;2274637;61;20370;-55
2023/09/19 00:45:48;0.00;0.00;0.62;0.00;0.00;0.62;1.93;1.40;;;28.90;32.70;;;;;;2273749;61;20381;-56
2023/09/19 00:48:39;0.00;0.00;0.62;0.00;0.00;0.62;1.90;1.07;;;28.90;32.70;;;;;;2273864;61;20416;-58
2023/09/19 00:51:27;0.00;0.00;0.62;0.00;0.00;0.62;2.40;1.47;;;28.90;33.40;;;;;;2271330;61;20359;-58
2023/09/19 00:54:17;0.00;0.00;0.62;0.00;0.00;0.62;2.03;1.10;;;28.90;32.70;;;;;;2274073;61;20375;-57
2023/09/19 00:57:03;0.00;0.00;0.62;0.00;0.00;0.62;1.83;1.23;;;28.90;32.70;;;;;;2274294;61;20892;-60
2023/09/19 00:59:50;0.00;0.00;0.62;0.00;0.00;0.62;2.10;1.20;;;28.90;32.80;;;;;;2274011;61;20394;-55
2023/09/19 01:02:35;0.00;0.00;0.62;0.00;0.00;0.62;4.63;1.40;;;28.90;32.70;;;;;;2273935;61;20355;-57
2023/09/19 01:05:20;0.00;0.00;0.62;0.00;0.00;0.62;1.70;1.07;;;28.90;32.70;;;;;;2271431;61;20458;-58
2023/09/19 01:08:07;0.00;0.00;0.62;0.00;0.00;0.62;1.57;1.03;;;28.90;32.70;;;;;;2273692;61;20892;-56
2023/09/19 01:10:59;0.00;0.00;0.62;0.00;0.00;0.62;2.80;1.50;;;28.90;32.70;;;;;;2274220;61;20418;-58
2023/09/19 01:13:57;0.00;0.00;0.62;0.00;0.00;0.62;2.20;1.23;;;28.90;32.70;;;;;;2271448;61;20391;-59
2023/09/19 01:17:03;0.00;0.00;0.62;0.00;0.00;0.62;3.30;1.40;;;28.90;32.70;;;;;;2273847;61;20441;-58
2023/09/19 01:20:19;0.00;0.00;0.62;0.00;0.00;0.62;1.90;1.33;;;28.80;32.60;;;;;;2274035;61;20398;-59
2023/09/19 01:23:15;0.00;0.00;0.62;0.00;0.00;0.62;2.90;1.90;;;28.90;32.70;;;;;;2273987;61;20483;-59
2023/09/19 01:26:27;0.00;0.00;0.62;0.00;0.00;0.62;1.90;1.30;;;28.80;32.60;;;;;;2274396;61;20371;-57
2023/09/19 01:29:34;0.00;0.00;0.62;0.00;0.00;0.62;1.63;1.20;;;28.80;32.60;;;;;;2270690;61;20429;-59
2023/09/19 01:32:24;0.00;0.00;0.62;0.00;0.00;0.62;2.40;1.80;;;28.80;32.60;;;;;;2274801;61;20367;-59
2023/09/19 01:35:12;0.00;0.00;0.62;0.00;0.00;0.62;2.23;1.20;;;28.80;32.70;;;;;;2273635;61;20364;-59
2023/09/19 01:37:57;0.00;0.00;0.62;0.00;0.00;0.62;2.00;1.50;;;28.80;33.30;;;;;;2273934;61;20391;-58
2023/09/19 01:40:47;0.00;0.00;0.62;0.00;0.00;0.62;4.03;2.37;;;28.80;32.60;;;;;;2274071;61;20418;-59
2023/09/19 01:43:37;0.00;0.00;0.62;0.00;0.00;0.62;3.13;1.37;;;28.80;32.70;;;;;;2274942;61;20422;-58
2023/09/19 01:46:29;0.00;0.00;0.62;0.00;0.00;0.62;3.80;1.27;;;28.80;32.70;;;;;;2274011;61;20378;-58
2023/09/19 01:49:33;0.00;0.00;0.62;0.00;0.00;0.62;2.13;1.50;;;28.70;32.60;;;;;;2273536;61;20411;-57
2023/09/19 01:52:21;0.00;0.00;0.62;0.00;0.00;0.62;2.27;1.30;;;28.70;32.60;;;;;;2274010;61;20778;-54
2023/09/19 01:55:10;0.00;0.00;0.62;0.00;0.00;0.62;2.60;1.63;;;28.80;32.60;;;;;;2283838;57;20565;-58
2023/09/19 01:58:04;0.00;0.00;0.62;0.00;0.00;0.62;2.83;1.77;;;28.70;32.50;;;;;;2273731;61;20386;-58
2023/09/19 02:00:53;0.00;0.00;0.62;0.00;0.00;0.62;1.77;1.47;;;28.80;32.60;;;;;;2273859;61;20387;-60
2023/09/19 02:03:39;0.00;0.00;0.62;0.00;0.00;0.62;2.60;1.73;;;28.70;32.50;;;;;;2273660;61;20381;-58
2023/09/19 02:06:26;0.00;0.00;0.62;0.00;0.00;0.62;2.53;1.67;;;28.70;32.50;;;;;;2271225;61;20364;-56
2023/09/19 02:09:11;0.00;0.00;0.62;0.00;0.00;0.62;2.00;1.47;;;28.70;32.40;;;;;;2273966;61;20469;-58
2023/09/19 02:11:56;0.00;0.00;0.62;0.00;0.00;0.62;2.10;1.90;;;28.70;32.30;;;;;;2270973;61;20459;-57
2023/09/19 02:14:41;0.00;0.00;0.62;0.00;0.00;0.62;2.80;1.50;;;28.70;32.30;;;;;;2270973;61;20363;-55
2023/09/19 02:17:26;0.00;0.00;0.62;0.00;0.00;0.62;2.17;1.43;;;28.70;32.30;;;;;;2274076;61;20359;-55
2023/09/19 02:20:14;0.00;0.00;0.62;0.00;0.00;0.62;1.80;1.47;;;28.70;32.30;;;;;;2274090;61;20783;-60
2023/09/19 02:23:02;0.00;0.00;0.62;0.00;0.00;0.62;2.27;1.70;;;28.70;32.30;;;;;;2273501;61;20359;-59
2023/09/19 02:25:52;0.00;0.00;0.62;0.00;0.00;0.62;2.10;1.60;;;28.70;32.30;;;;;;2270892;61;20455;-56
2023/09/19 02:28:37;0.00;0.00;0.62;0.00;0.00;0.62;2.83;1.70;;;28.70;32.30;;;;;;2272871;61;20359;-59
2023/09/19 02:31:22;0.00;0.00;0.62;0.00;0.00;0.62;2.20;1.60;;;28.70;32.30;;;;;;2273633;61;20367;-57
2023/09/19 02:34:20;0.00;0.00;0.62;0.00;0.00;0.62;4.37;2.20;;;28.70;32.30;;;;;;2273928;61;20363;-54
2023/09/19 02:37:05;0.00;0.00;0.62;0.00;0.00;0.62;2.03;1.57;;;28.70;32.20;;;;;;2270583;61;20410;-58
2023/09/19 02:39:52;0.00;0.00;0.62;0.00;0.00;0.62;2.03;1.60;;;28.60;32.20;;;;;;2273875;61;20406;-59
2023/09/19 02:42:37;0.00;0.00;0.62;0.00;0.00;0.62;2.30;1.70;;;28.60;32.10;;;;;;2273713;61;20371;-58
2023/09/19 02:45:23;0.00;0.00;0.62;0.00;0.00;0.62;2.13;1.70;;;28.70;32.20;;;;;;2273869;61;20423;-57
2023/09/19 02:48:08;0.00;0.00;0.62;0.00;0.00;0.62;2.00;1.47;;;28.60;32.10;;;;;;2273437;61;20908;-55
2023/09/19 02:50:54;0.00;0.00;0.62;0.00;0.00;0.62;2.40;1.80;;;28.60;32.10;;;;;;2274166;61;20358;-57
2023/09/19 02:53:39;0.00;0.00;0.62;0.00;0.00;0.62;3.97;1.87;;;28.70;32.20;;;;;;2273620;61;20378;-58
2023/09/19 02:56:26;0.00;0.00;0.62;0.00;0.00;0.62;2.80;2.27;;;28.60;32.10;;;;;;2712383;45;20418;-59
2023/09/19 02:59:11;0.00;0.00;0.62;0.00;0.00;0.62;3.97;2.10;;;28.60;32.00;;;;;;2268563;61;20388;-57
2023/09/19 03:01:56;0.00;0.00;0.62;0.00;0.00;0.62;2.47;2.00;;;28.60;32.00;;;;;;2266796;61;20391;-56
2023/09/19 03:04:41;0.00;0.00;0.62;0.00;0.00;0.62;3.07;2.17;;;28.60;32.00;;;;;;2269709;61;20368;-57
2023/09/19 03:07:26;0.00;0.00;0.62;0.00;0.00;0.62;4.07;1.87;;;28.60;32.00;;;;;;2269202;61;20363;-60
2023/09/19 03:10:11;0.00;0.00;0.62;0.00;0.00;0.62;1.80;1.50;;;28.60;32.00;;;;;;2269229;61;20411;-56
2023/09/19 03:12:59;0.00;0.00;0.62;0.00;0.00;0.62;2.73;1.90;;;28.60;32.00;;;;;;2269093;61;20395;-55
2023/09/19 03:15:46;0.00;0.00;0.62;0.00;0.00;0.62;3.30;1.90;;;28.60;31.90;;;;;;2269935;61;20368;-59
2023/09/19 03:18:32;0.00;0.00;0.62;0.00;0.00;0.62;2.57;1.90;;;28.60;31.90;;;;;;2268609;61;20368;-58
2023/09/19 03:21:17;0.00;0.00;0.62;0.00;0.00;0.62;2.37;1.90;;;28.60;31.90;;;;;;2269850;61;20400;-60
2023/09/19 03:24:04;0.00;0.00;0.62;0.00;0.00;0.62;2.50;1.97;;;28.60;31.90;;;;;;2269611;61;20356;-60
2023/09/19 03:26:49;0.00;0.00;0.62;0.00;0.00;0.62;2.00;1.57;;;28.60;32.60;;;;;;2268954;61;20441;-54
2023/09/19 03:29:36;0.00;0.00;0.62;0.00;0.00;0.62;2.37;1.80;;;28.60;31.90;;;;;;2269104;61;20403;-58
2023/09/19 03:32:23;0.00;0.00;0.62;0.00;0.00;0.62;3.73;2.10;;;28.50;31.80;;;;;;2266671;61;20364;-58
2023/09/19 03:35:11;0.00;0.00;0.62;0.00;0.00;0.62;2.60;1.90;;;28.60;31.90;;;;;;2269500;61;20753;-59
2023/09/19 03:37:56;0.00;0.00;0.62;0.00;0.00;0.62;2.53;1.77;;;28.50;31.70;;;;;;2269411;61;20766;-60
2023/09/19 03:40:44;0.00;0.00;0.62;0.00;0.00;0.62;2.80;2.03;;;28.50;31.70;;;;;;2269337;61;20446;-60
2023/09/19 03:43:28;0.00;0.00;0.62;0.00;0.00;0.62;2.60;1.67;;;28.50;31.70;;;;;;2269995;61;20360;-57
2023/09/19 03:46:15;0.00;0.00;0.62;0.00;0.00;0.62;1.90;1.60;;;28.50;31.70;;;;;;2269494;61;20375;-53
2023/09/19 03:49:00;0.00;0.00;0.62;0.00;0.00;0.62;2.47;1.70;;;28.50;31.70;;;;;;2269240;61;20798;-58
2023/09/19 03:51:45;0.00;0.00;0.62;0.00;0.00;0.62;3.07;1.93;;;28.50;31.70;;;;;;2269466;61;20356;-60
2023/09/19 03:54:29;0.00;0.00;0.62;0.00;0.00;0.62;2.43;1.73;;;28.50;31.70;;;;;;2268951;61;20972;-59
2023/09/19 03:57:20;0.00;0.00;0.62;0.00;0.00;0.62;3.47;2.10;;;28.50;31.70;;;;;;2266602;61;20367;-58
2023/09/19 04:00:11;0.00;0.00;0.62;0.00;0.00;0.62;4.10;1.77;;;28.50;31.70;;;;;;2269071;61;20844;-58
2023/09/19 04:03:05;0.00;0.00;0.62;0.00;0.00;0.62;2.47;1.87;;;28.50;31.70;;;;;;2269445;61;20410;-56
2023/09/19 04:05:50;0.00;0.00;0.62;0.00;0.00;0.62;3.30;2.47;;;28.50;31.70;;;;;;2270062;61;20368;-60
2023/09/19 04:08:34;0.00;0.00;0.62;0.00;0.00;0.62;2.90;2.37;;;28.50;31.70;;;;;;2270076;61;20364;-58
2023/09/19 04:11:19;0.00;0.00;0.62;0.00;0.00;0.62;2.97;2.10;;;28.50;31.70;;;;;;2269943;61;20368;-59
2023/09/19 04:14:04;0.00;0.00;0.62;0.00;0.00;0.62;3.90;2.10;;;28.50;31.70;;;;;;2269762;61;20447;-55
2023/09/19 04:16:50;0.00;0.00;0.62;0.00;0.00;0.62;4.03;2.40;;;28.50;31.70;;;;;;2270044;61;20368;-59
2023/09/19 04:19:36;0.00;0.00;0.62;0.00;0.00;0.62;3.03;2.27;;;28.50;31.70;;;;;;2269779;61;20785;-59
2023/09/19 04:22:21;0.00;0.00;0.62;0.00;0.00;0.62;3.87;2.17;;;28.50;31.60;;;;;;2270342;61;20518;-58
2023/09/19 04:25:06;0.00;0.00;0.62;0.00;0.00;0.62;3.40;2.30;;;28.50;31.60;;;;;;2270155;61;20364;-59
2023/09/19 04:27:51;0.00;0.00;0.62;0.00;0.00;0.62;2.67;2.03;;;28.40;31.50;;;;;;2267168;61;20383;-53
2023/09/19 04:30:36;0.00;0.00;0.62;0.00;0.00;0.62;2.97;2.13;;;28.40;31.50;;;;;;2270045;61;20388;-59
2023/09/19 04:33:21;0.00;0.00;0.62;0.00;0.00;0.62;2.67;2.20;;;28.40;31.50;;;;;;2270515;61;20359;-58
2023/09/19 04:36:07;0.00;0.00;0.62;0.00;0.00;0.62;4.10;2.77;;;28.40;31.50;;;;;;2266870;61;20822;-59
2023/09/19 04:38:53;0.00;0.00;0.62;0.00;0.00;0.62;5.27;2.57;;;28.40;31.50;;;;;;2269924;61;20387;-55
2023/09/19 04:41:41;0.00;0.00;0.62;0.00;0.00;0.62;3.63;2.53;;;28.40;31.50;;;;;;2270176;61;20996;-59
2023/09/19 04:44:25;0.00;0.00;0.62;0.00;0.00;0.62;3.20;2.10;;;28.40;31.50;;;;;;2270135;61;20377;-55
2023/09/19 04:47:12;0.00;0.00;0.62;0.00;0.00;0.62;3.40;2.43;;;28.40;31.50;;;;;;2270092;61;20379;-59
2023/09/19 04:49:58;0.00;0.00;0.62;0.00;0.00;0.62;5.20;2.33;;;28.40;31.50;;;;;;2269711;61;20433;-56
2023/09/19 04:52:45;0.00;0.00;0.62;0.00;0.00;0.62;3.77;2.57;;;28.40;31.50;;;;;;2267350;61;20387;-56
2023/09/19 04:55:30;0.00;0.00;0.62;0.00;0.00;0.62;4.17;3.10;;;28.40;31.40;;;;;;2270880;61;20361;-56
2023/09/19 04:58:14;0.00;0.00;0.62;0.00;0.00;0.62;3.73;2.60;;;28.40;31.40;;;;;;2269851;61;20426;-55
2023/09/19 05:00:59;0.00;0.00;0.62;0.00;0.00;0.62;4.03;3.20;;;28.40;31.40;;;;;;2270414;61;20834;-58
2023/09/19 05:03:45;0.00;0.00;0.62;0.00;0.00;0.62;3.80;2.80;;;28.40;31.40;;;;;;2269944;61;20363;-55
2023/09/19 05:06:30;0.00;0.00;0.62;0.00;0.00;0.62;3.90;2.80;;;28.40;31.40;;;;;;2270108;61;20368;-58
2023/09/19 05:09:19;0.00;0.00;0.62;0.00;0.00;0.62;3.97;2.67;;;28.40;31.40;;;;;;2269557;61;20388;-58
2023/09/19 05:12:05;0.00;0.00;0.62;0.00;0.00;0.62;4.17;2.80;;;28.40;31.40;;;;;;2269966;61;20361;-57
2023/09/19 05:14:50;0.00;0.00;0.62;0.00;0.00;0.62;3.17;2.60;;;28.40;31.30;;;;;;2269414;61;20428;-54
2023/09/19 05:17:35;0.00;0.00;0.62;0.00;0.00;0.62;3.00;2.40;;;28.40;31.30;;;;;;2269905;61;20856;-59
2023/09/19 05:20:30;0.00;0.00;0.62;0.00;0.00;0.62;3.13;2.47;;;28.40;31.30;;;;;;2269481;61;20453;-56
2023/09/19 05:23:15;0.00;0.00;0.62;0.00;0.00;0.62;3.87;3.33;;;28.40;31.30;;;;;;2269735;61;20494;-57
2023/09/19 05:26:01;0.00;0.00;0.62;0.00;0.00;0.62;3.70;2.67;;;28.40;31.30;;;;;;2268805;61;20433;-57
2023/09/19 05:28:47;0.00;0.00;0.62;0.00;0.00;0.62;4.03;3.27;;;28.40;31.20;;;;;;2269710;61;20447;-58
2023/09/19 05:31:32;0.00;0.00;0.62;0.00;0.00;0.62;7.03;3.33;;;28.40;31.20;;;;;;2269243;61;20355;-60
2023/09/19 05:34:17;0.00;0.00;0.62;0.00;0.00;0.62;4.30;3.40;;;28.30;31.20;;;;;;2270163;61;20410;-59
2023/09/19 05:37:01;0.00;0.00;0.62;0.00;0.00;0.62;3.17;2.87;;;28.30;31.10;;;;;;2270164;61;20364;-56
2023/09/19 05:39:46;0.00;0.00;0.62;0.00;0.00;0.62;3.93;2.93;;;28.30;31.10;;;;;;2270063;61;20380;-58
2023/09/19 05:42:32;0.00;0.00;0.62;0.00;0.00;0.62;4.50;3.47;;;28.30;31.10;;;;;;2269907;61;20669;-59
2023/09/19 05:45:24;0.00;0.00;0.62;0.00;0.00;0.62;5.87;3.73;;;28.30;31.10;;;;;;2270419;61;20775;-59
2023/09/19 05:48:11;0.00;0.00;0.62;0.00;0.00;0.62;4.10;2.90;;;28.30;31.00;;;;;;2269689;61;20794;-59
2023/09/19 05:50:56;0.00;0.00;0.62;0.00;0.00;0.62;4.10;3.33;;;28.30;31.00;;;;;;2270054;61;20379;-56
2023/09/19 05:53:43;0.00;0.00;0.62;0.00;0.00;0.62;5.50;3.30;;;28.30;31.00;;;;;;2269960;61;20400;-59
2023/09/19 05:56:28;0.00;0.00;0.62;0.00;0.00;0.62;3.97;3.10;;;28.30;31.00;;;;;;2269542;61;20396;-59
2023/09/19 05:59:15;0.00;0.00;0.62;0.00;0.00;0.62;4.50;3.00;;;28.30;30.90;;;;;;2269305;61;20468;-58
2023/09/19 06:02:00;0.00;0.00;0.62;0.00;0.00;0.62;4.03;3.17;;;28.30;30.90;;;;;;2270012;61;20392;-59
2023/09/19 06:04:44;0.00;0.00;0.62;0.00;0.00;0.62;6.00;3.10;;;28.30;30.90;;;;;;2266783;61;20379;-59
2023/09/19 06:07:36;0.00;0.00;0.62;0.00;0.00;0.62;3.50;3.00;;;28.30;30.80;;;;;;2269994;61;20406;-58
2023/09/19 06:10:23;0.00;0.00;0.62;0.00;0.00;0.62;4.90;3.50;;;28.30;30.80;;;;;;2269716;61;20933;-57
2023/09/19 06:13:09;0.00;0.00;0.62;0.00;0.00;0.62;3.30;2.97;;;28.20;30.80;;;;;;2269921;61;20839;-55
2023/09/19 06:15:56;0.00;0.00;0.62;0.00;0.00;0.62;3.30;3.00;;;28.30;30.80;;;;;;2270137;61;20387;-56
2023/09/19 06:18:41;0.00;0.00;0.62;0.00;0.00;0.62;6.07;3.53;;;28.30;30.80;;;;;;2269696;61;20967;-53
2023/09/19 06:21:26;0.00;0.00;0.62;0.00;0.00;0.62;5.03;3.40;;;28.30;30.80;;;;;;2270647;61;20388;-60
2023/09/19 06:24:11;0.00;0.00;0.62;0.00;0.00;0.62;4.30;3.27;;;28.20;30.70;;;;;;2269836;61;20830;-56
2023/09/19 06:26:56;0.00;0.00;0.62;0.00;0.00;0.62;5.10;3.20;;;28.30;30.70;;;;;;2269549;61;20410;-59
2023/09/19 06:29:41;0.00;0.00;0.62;0.00;0.00;0.62;3.73;3.17;;;28.30;30.70;;;;;;2269408;61;20682;-60
2023/09/19 06:32:28;0.00;0.00;0.62;0.00;0.00;0.62;5.43;3.63;;;28.20;30.60;;;;;;2268611;61;20767;-50
2023/09/19 06:35:15;0.00;0.00;0.62;0.00;0.00;0.62;3.60;3.10;;;28.20;30.60;;;;;;2264608;61;20386;-49
2023/09/19 06:38:02;0.00;0.00;0.62;0.00;0.00;0.62;3.57;3.10;;;28.20;30.60;;;;;;2264362;61;20395;-55
2023/09/19 06:40:47;0.00;0.00;0.62;0.00;0.00;0.62;3.40;3.00;;;28.20;30.60;;;;;;2264256;61;20901;-53
2023/09/19 06:43:33;0.00;0.00;0.62;0.00;0.00;0.62;4.50;3.17;;;28.20;30.50;;;;;;2264808;61;20368;-52
2023/09/19 06:46:18;0.00;0.00;0.62;0.00;0.00;0.62;5.50;3.03;;;28.20;30.50;;;;;;2264647;61;20913;-56
2023/09/19 06:49:06;0.00;0.00;0.62;0.00;0.00;0.62;5.00;2.90;;;28.20;30.50;;;;;;2264013;61;20430;-55
2023/09/19 06:51:50;0.00;0.00;0.62;0.00;0.00;0.62;3.40;2.83;;;28.20;30.40;;;;;;2264589;61;20404;-53
2023/09/19 06:54:35;0.00;0.00;0.62;0.00;0.00;0.62;5.57;3.80;;;28.20;30.40;;;;;;2264206;61;20367;-55
2023/09/19 06:57:20;0.00;0.00;0.62;0.00;0.00;0.62;3.00;2.50;;;28.20;30.30;;;;;;2264537;61;20353;-56
2023/09/19 07:00:15;0.00;0.00;0.62;0.00;0.00;0.62;3.40;2.73;;;28.20;30.30;;;;;;2264180;61;20808;-55
2023/09/19 07:03:03;0.00;0.00;0.62;0.00;0.00;0.62;4.20;3.00;;;28.20;30.30;;;;;;2264337;61;20406;-51
2023/09/19 07:05:49;0.00;0.00;0.62;0.00;0.00;0.62;4.00;2.77;;;28.20;30.30;;;;;;2264384;61;20380;-53
2023/09/19 07:08:34;0.00;0.00;0.62;0.00;0.00;0.62;6.17;3.07;;;28.20;30.20;;;;;;2264277;61;20367;-51
2023/09/19 07:11:19;0.00;0.00;0.62;0.00;0.00;0.62;3.57;3.03;;;28.20;30.20;;;;;;2264193;61;20490;-53
2023/09/19 07:14:05;0.00;0.00;0.62;0.00;0.00;0.62;3.70;2.50;;;28.20;30.40;;;;;;2264397;61;20450;-55
2023/09/19 07:16:50;0.00;0.00;0.62;0.00;0.00;0.62;4.70;2.77;;;28.20;30.20;;;;;;2264197;61;20411;-53
2023/09/19 07:19:34;0.00;0.00;0.62;0.00;0.00;0.62;4.33;2.90;;;28.20;30.20;;;;;;2264235;61;20384;-52
2023/09/19 07:22:20;0.00;0.00;0.62;0.00;0.00;0.62;3.40;2.50;;;28.20;30.20;;;;;;2264423;61;20364;-58
2023/09/19 07:25:06;0.00;0.00;0.62;0.00;0.00;0.62;5.47;3.17;;;28.20;30.20;;;;;;2264175;61;20410;-56
2023/09/19 07:27:51;0.00;0.00;0.62;0.00;0.00;0.62;3.87;2.13;;;28.20;30.20;;;;;;2264406;61;20412;-53
2023/09/19 07:30:41;0.00;0.00;0.62;0.00;0.00;0.62;3.63;2.43;;;28.20;30.10;;;;;;2264297;61;20384;-54
2023/09/19 07:33:28;0.00;0.00;0.62;0.00;0.00;0.62;2.73;2.10;;;28.20;30.10;;;;;;2264228;61;20356;-55
2023/09/19 07:36:13;0.00;0.00;0.62;0.00;0.00;0.62;4.00;2.60;;;28.20;30.10;;;;;;2267339;61;20425;-54
2023/09/19 07:39:00;0.00;0.00;0.62;0.00;0.00;0.62;4.30;2.13;;;28.10;30.00;;;;;;2268304;61;20476;-56
2023/09/19 07:41:44;0.00;0.00;0.62;0.00;0.00;0.62;2.77;2.13;;;28.20;30.10;;;;;;2269208;61;20409;-50
2023/09/19 07:44:29;0.00;0.00;0.62;0.00;0.00;0.62;3.03;2.00;;;28.20;30.00;;;;;;2269114;61;20777;-53
2023/09/19 07:47:14;0.00;0.00;0.62;0.00;0.00;0.62;4.73;2.20;;;28.20;30.10;;;;;;2269151;61;20474;-51
2023/09/19 07:49:59;0.00;0.00;0.62;0.00;0.00;0.62;3.40;1.90;;;28.10;30.00;;;;;;2268988;61;20410;-54
2023/09/19 07:52:44;0.00;0.00;0.62;0.00;0.00;0.62;3.40;2.10;;;28.10;30.00;;;;;;2269126;61;20947;-53
2023/09/19 07:55:33;0.00;0.00;0.62;0.00;0.00;0.62;3.67;1.90;;;28.10;30.00;;;;;;2268917;61;20432;-51
2023/09/19 07:58:18;0.00;0.00;0.62;0.00;0.00;0.62;4.50;2.10;;;28.10;30.00;;;;;;2269289;61;20371;-54
2023/09/19 08:01:04;0.00;0.00;0.62;0.00;0.00;0.62;2.77;1.67;;;28.10;30.00;;;;;;2269175;61;20445;-52
2023/09/19 08:03:48;0.00;0.00;0.62;0.00;0.00;0.62;3.77;2.20;;;28.10;30.60;;;;;;2269194;61;20359;-53
2023/09/19 08:06:33;0.00;0.00;0.62;0.00;0.00;0.62;3.03;1.57;;;28.10;30.00;;;;;;2269047;61;20881;-53
2023/09/19 08:09:20;0.00;0.00;0.62;0.00;0.00;0.62;2.70;1.80;;;28.10;30.00;;;;;;2268757;61;20614;-50
2023/09/19 08:12:10;0.00;0.00;0.62;0.00;0.00;0.62;3.00;1.53;;;28.10;30.00;;;;;;2269085;61;20447;-59
2023/09/19 08:14:55;0.00;0.00;0.62;0.00;0.00;0.62;2.90;1.40;;;28.10;30.00;;;;;;2269217;61;20367;-56
2023/09/19 08:17:40;0.00;0.00;0.62;0.00;0.00;0.62;2.80;1.50;;;28.10;30.60;;;;;;2268915;61;20976;-54
2023/09/19 08:20:25;0.00;0.00;0.62;0.00;0.00;0.62;3.10;1.90;;;28.10;30.00;;;;;;2268991;61;20383;-55
2023/09/19 08:23:09;0.00;0.00;0.62;0.00;0.00;0.62;2.80;1.50;;;28.10;30.00;;;;;;2269072;61;20443;-54
2023/09/19 08:25:57;0.00;0.00;0.62;0.00;0.00;0.62;3.30;1.53;;;28.10;30.00;;;;;;2269281;61;20371;-53
2023/09/19 08:28:43;0.00;0.00;0.62;0.00;0.00;0.62;2.77;1.63;;;28.10;30.00;;;;;;2268693;61;20367;-53
2023/09/19 08:31:29;0.00;0.00;0.62;0.00;0.00;0.62;3.00;1.60;;;28.10;30.00;;;;;;2268888;61;20363;-50
2023/09/19 08:34:14;0.00;0.00;0.62;0.00;0.00;0.62;2.50;1.40;;;28.10;30.00;;;;;;2269000;61;20457;-51
2023/09/19 08:36:58;0.00;0.00;0.62;0.00;0.00;0.62;5.03;2.43;;;28.10;30.00;;;;;;2269089;61;20366;-51
2023/09/19 08:39:43;0.00;0.00;0.62;0.00;0.00;0.62;2.83;1.70;;;28.10;30.00;;;;;;2268563;61;20832;-53
2023/09/19 08:42:28;0.00;0.00;0.62;0.00;0.00;0.62;4.40;1.80;;;28.10;30.00;;;;;;2269188;61;20360;-54
2023/09/19 08:45:14;0.00;0.00;0.62;0.00;0.00;0.62;3.80;1.97;;;28.10;30.00;;;;;;2269025;61;20893;-58
2023/09/19 08:48:17;0.00;0.00;0.62;0.00;0.00;0.62;2.70;1.87;;;28.10;30.00;;;;;;2268972;61;20371;-50
2023/09/19 08:51:07;0.00;0.00;0.62;0.00;0.00;0.62;2.90;1.67;;;28.10;30.00;;;;;;2268871;61;20375;-52
2023/09/19 08:53:59;0.00;0.00;0.62;0.00;0.00;0.62;2.70;1.57;;;28.10;30.00;;;;;;2268909;61;20441;-49
2023/09/19 08:56:45;0.00;0.00;0.62;0.00;0.00;0.62;2.37;1.53;;;28.10;30.00;;;;;;2268615;61;20888;-56
2023/09/19 08:59:29;0.00;0.00;0.62;0.00;0.00;0.62;3.43;1.60;;;28.10;30.00;;;;;;2268749;61;20962;-54
2023/09/19 09:02:18;0.00;0.00;0.62;0.00;0.00;0.62;4.27;1.60;;;28.10;30.00;;;;;;2268721;61;20383;-55
2023/09/19 09:05:06;0.00;0.00;0.62;0.00;0.00;0.62;2.60;1.67;;;28.10;29.90;;;;;;2268748;61;20812;-52
2023/09/19 09:07:51;0.00;0.00;0.62;0.00;0.00;0.62;4.87;1.60;;;28.10;29.90;;;;;;2268679;61;20398;-59
2023/09/19 09:10:38;0.00;0.00;0.62;0.00;0.00;0.62;5.73;2.10;;;28.10;29.90;;;;;;2268699;61;20374;-52
2023/09/19 09:13:24;0.00;0.00;0.62;0.00;0.00;0.62;2.67;1.60;;;28.10;29.90;;;;;;2268885;61;20360;-52
2023/09/19 09:16:09;0.00;0.00;0.62;0.00;0.00;0.62;2.43;1.30;;;28.10;29.90;;;;;;2268429;61;20421;-54
2023/09/19 09:18:56;0.00;0.00;0.62;0.00;0.00;0.62;2.80;1.60;;;28.10;29.90;;;;;;2268630;61;21014;-51
2023/09/19 09:21:41;0.00;0.00;0.62;0.00;0.00;0.62;3.30;1.70;;;28.10;29.90;;;;;;2268888;61;20803;-53
2023/09/19 09:24:30;0.00;0.00;0.62;0.00;0.00;0.62;2.30;1.60;;;28.10;30.40;;;;;;2268855;61;20399;-50
2023/09/19 09:27:15;0.00;0.00;0.62;0.00;0.00;0.62;8.43;2.33;;;28.10;29.90;;;;;;2268858;61;20441;-49
2023/09/19 09:30:00;0.00;0.00;0.62;0.00;0.00;0.62;3.27;1.87;;;28.10;29.80;;;;;;2268750;61;20429;-51
2023/09/19 09:32:44;0.00;0.00;0.62;0.00;0.00;0.62;4.60;1.63;;;28.10;29.80;;;;;;2268660;61;20433;-55
2023/09/19 09:35:30;0.00;0.00;0.62;0.00;0.00;0.62;2.43;1.60;;;28.10;29.80;;;;;;2268560;61;20383;-59
2023/09/19 09:38:18;0.00;0.00;0.62;0.00;0.00;0.62;4.33;1.43;;;28.10;29.80;;;;;;2268347;61;20383;-54
2023/09/19 09:41:06;0.00;0.00;0.62;0.00;0.00;0.62;3.80;2.00;;;28.10;29.80;;;;;;2268592;61;20833;-53
2023/09/19 09:43:51;0.00;0.00;0.62;0.00;0.00;0.62;2.00;1.30;;;28.10;29.80;;;;;;2268200;61;20358;-55
2023/09/19 09:49:39;0.00;0.00;0.62;0.00;0.00;0.62;3.87;2.10;;;28.10;29.80;;;;;;2268590;61;21039;-50
2023/09/19 09:52:25;0.00;0.00;0.62;0.00;0.00;0.62;3.60;1.80;;;28.20;29.90;;;;;;2268640;61;20393;-56
2023/09/19 09:55:10;0.00;0.00;0.62;0.00;0.00;0.62;3.37;1.97;;;28.20;29.90;;;;;;2268883;61;20367;-54
2023/09/19 09:58:22;0.00;0.00;0.62;0.00;0.00;0.62;2.33;1.40;;;28.20;29.90;;;;;;2268121;61;20413;-55
2023/09/19 10:01:10;0.00;0.00;0.62;0.00;0.00;0.62;3.60;1.77;;;28.20;29.90;;;;;;2268585;61;20387;-50
2023/09/19 10:04:00;0.00;0.00;0.62;0.00;0.00;0.62;1.93;1.20;;;28.20;29.90;;;;;;2268706;61;20367;-55
2023/09/19 10:06:47;0.00;0.00;0.62;0.00;0.00;0.62;4.07;1.50;;;28.10;29.80;;;;;;2268838;61;20473;-56
2023/09/19 10:09:50;0.00;0.00;0.62;0.00;0.00;0.62;3.20;1.30;;;28.20;29.90;;;;;;2268553;61;20387;-53
2023/09/19 10:12:41;0.00;0.00;0.62;0.00;0.00;0.62;3.00;1.47;;;28.20;29.90;;;;;;2268774;61;20398;-47
2023/09/19 10:15:32;0.00;0.00;0.62;0.00;0.00;0.62;2.70;1.60;;;28.20;29.90;;;;;;2268655;61;20471;-49
2023/09/19 10:18:20;0.00;0.00;0.62;0.00;0.00;0.62;2.97;1.67;;;28.20;29.90;;;;;;2268652;61;20489;-53
2023/09/19 10:21:08;0.00;0.00;0.62;0.00;0.00;0.62;2.80;1.53;;;28.20;29.90;;;;;;2268568;61;20874;-52
2023/09/19 10:23:56;0.00;0.00;0.62;0.00;0.00;0.62;4.50;2.10;;;28.20;29.80;;;;;;2268595;61;20367;-49
2023/09/19 10:26:43;0.00;0.00;0.62;0.00;0.00;0.62;2.33;1.20;;;28.20;29.80;;;;;;2268876;61;20363;-52
2023/09/19 10:29:31;0.00;0.00;0.62;0.00;0.00;0.62;2.87;1.43;;;28.20;29.80;;;;;;2268450;61;20467;-51
2023/09/19 10:32:19;0.00;0.00;0.62;0.00;0.00;0.62;3.27;1.50;;;28.20;29.80;;;;;;2268650;61;20591;-53
2023/09/19 10:35:06;0.00;0.00;0.62;0.00;0.00;0.62;4.43;1.80;;;28.20;29.80;;;;;;2268752;61;20359;-52
2023/09/19 10:37:54;0.00;0.00;0.62;0.00;0.00;0.62;3.67;1.60;;;28.20;29.70;;;;;;2267874;61;20422;-54
2023/09/19 10:40:46;0.00;0.00;0.62;0.00;0.00;0.62;3.30;1.50;;;28.30;29.80;;;;;;2268669;61;20522;-54
2023/09/19 10:43:33;0.00;0.00;0.62;0.00;0.00;0.62;5.50;2.00;;;28.20;29.70;;;;;;2268660;61;20939;-53
2023/09/19 10:46:18;0.00;0.00;0.62;0.00;0.00;0.62;3.33;1.70;;;28.30;29.70;;;;;;2268447;61;20413;-55
2023/09/19 10:49:03;0.00;0.00;0.62;0.00;0.00;0.62;2.70;1.77;;;28.30;29.70;;;;;;2268526;61;20415;-52
2023/09/19 10:51:50;0.00;0.00;0.62;0.00;0.00;0.62;3.07;1.60;;;28.30;29.70;;;;;;2268354;61;20991;-51
2023/09/19 10:54:39;0.00;0.00;0.62;0.00;0.00;0.62;4.83;2.10;;;28.30;29.70;;;;;;2268696;61;20364;-53
2023/09/19 10:57:27;0.00;0.00;0.62;0.00;0.00;0.62;5.80;1.73;;;28.30;29.70;;;;;;2268662;61;20417;-58
2023/09/19 11:00:23;0.00;0.00;0.62;0.00;0.00;0.62;3.23;1.70;;;28.30;29.70;;;;;;2268069;61;20383;-56
2023/09/19 11:03:20;0.00;0.00;0.62;0.00;0.00;0.62;4.40;2.07;;;28.30;29.60;;;;;;2268791;61;20367;-51